Time;durP1;ratioP1;P1;durP2;ratioP2;P2;SDS_P1;SDS_P2;PMS_P1;PMS_P2;Temp;Humidity;BMP_temperature;BMP_pressure;BME280_temperature;BME280_humidity;BME280_pressure;Samples;Min_cycle;Max_cycle;Signal;HPM_P1;HPM_P2
2023/08/02 00:02:12;;;;;;;8.90;4.93;;;;;;;;;;10297320;28;20023;-69
2023/08/02 00:07:12;;;;;;;11.73;4.85;;;;;;;;;;10269701;28;20026;-68
2023/08/02 00:12:12;;;;;;;8.25;4.80;;;;;;;;;;10289327;28;20027;-68
2023/08/02 00:17:13;;;;;;;7.55;4.65;;;;;;;;;;10278947;28;20078;-70
2023/08/02 00:22:13;;;;;;;9.20;5.10;;;;;;;;;;10290081;28;20304;-70
2023/08/02 00:27:13;;;;;;;8.82;4.55;;;;;;;;;;10279761;28;20011;-69
2023/08/02 00:32:13;;;;;;;8.88;5.10;;;;;;;;;;10253418;29;20015;-69
2023/08/02 00:37:14;;;;;;;8.00;4.93;;;;;;;;;;10261974;28;20029;-68
2023/08/02 00:42:14;;;;;;;9.15;4.43;;;;;;;;;;10296057;28;20253;-69
2023/08/02 00:47:14;;;;;;;6.78;4.63;;;;;;;;;;10260832;28;20033;-69
2023/08/02 00:52:14;;;;;;;10.63;4.85;;;;;;;;;;10267055;28;20220;-69
2023/08/02 00:57:15;;;;;;;7.35;5.10;;;;;;;;;;10283765;28;20294;-68
2023/08/02 01:02:15;;;;;;;8.05;5.35;;;;;;;;;;10281274;28;20304;-68
2023/08/02 01:07:35;;;;;;;9.98;5.80;;;;;;;;;;10294787;28;20019;-69
2023/08/02 01:12:37;;;;;;;7.20;5.30;;;;;;;;;;10289464;28;20205;-68
2023/08/02 01:17:38;;;;;;;8.80;5.50;;;;;;;;;;10290699;28;20070;-69
2023/08/02 01:22:38;;;;;;;7.50;5.10;;;;;;;;;;10274555;28;20029;-69
2023/08/02 01:27:51;;;;;;;8.80;5.25;;;;;;;;;;10284617;28;20269;-69
2023/08/02 01:32:51;;;;;;;10.73;5.90;;;;;;;;;;10263916;28;20019;-69
2023/08/02 01:37:51;;;;;;;9.20;5.57;;;;;;;;;;10287275;28;20307;-69
2023/08/02 01:42:52;;;;;;;8.67;6.73;;;;;;;;;;10283576;28;20038;-70
2023/08/02 01:47:52;;;;;;;7.18;4.82;;;;;;;;;;10293424;28;20282;-69
2023/08/02 01:52:52;;;;;;;8.30;5.87;;;;;;;;;;10279209;28;20197;-69
2023/08/02 01:57:52;;;;;;;8.95;5.00;;;;;;;;;;10287800;28;20025;-69
2023/08/02 02:02:53;;;;;;;10.00;5.97;;;;;;;;;;10282768;28;20022;-68
2023/08/02 02:07:53;;;;;;;10.07;5.68;;;;;;;;;;10289910;28;20127;-69
2023/08/02 02:12:53;;;;;;;15.52;6.10;;;;;;;;;;10290387;28;20231;-69
2023/08/02 02:17:53;;;;;;;11.15;7.18;;;;;;;;;;10282659;28;20394;-68
2023/08/02 02:22:57;;;;;;;9.55;7.43;;;;;;;;;;10284153;28;20045;-69
2023/08/02 02:27:57;;;;;;;10.00;7.97;;;;;;;;;;10292761;28;20027;-69
2023/08/02 02:32:57;;;;;;;13.55;8.65;;;;;;;;;;10268080;28;20280;-68
2023/08/02 02:37:58;;;;;;;11.23;7.57;;;;;;;;;;10288707;28;20384;-69
2023/08/02 02:42:58;;;;;;;10.88;8.48;;;;;;;;;;10293169;28;20022;-69
2023/08/02 02:47:58;;;;;;;11.52;7.80;;;;;;;;;;10288177;28;20031;-69
2023/08/02 02:52:58;;;;;;;13.17;8.70;;;;;;;;;;10291856;28;20031;-69
2023/08/02 02:57:59;;;;;;;14.73;7.80;;;;;;;;;;10292531;28;20050;-69
2023/08/02 03:02:59;;;;;;;11.57;8.30;;;;;;;;;;10275168;28;20202;-69
2023/08/02 03:07:59;;;;;;;11.07;7.43;;;;;;;;;;10292682;28;20026;-69
2023/08/02 03:12:59;;;;;;;9.20;7.35;;;;;;;;;;10293004;28;20316;-71
2023/08/02 03:18:00;;;;;;;15.82;7.50;;;;;;;;;;10274185;28;20242;-71
2023/08/02 03:23:00;;;;;;;10.02;7.65;;;;;;;;;;10275141;28;20087;-71
2023/08/02 03:28:00;;;;;;;10.97;7.70;;;;;;;;;;10259682;28;20189;-71
2023/08/02 03:33:01;;;;;;;13.45;8.52;;;;;;;;;;10279919;28;20321;-71
2023/08/02 03:38:01;;;;;;;13.48;8.57;;;;;;;;;;10282019;28;20260;-70
2023/08/02 03:43:01;;;;;;;10.23;7.78;;;;;;;;;;10300375;28;20042;-71
2023/08/02 03:48:01;;;;;;;11.45;8.27;;;;;;;;;;10273561;28;20220;-70
2023/08/02 03:53:02;;;;;;;12.20;10.00;;;;;;;;;;10263680;28;20341;-71
2023/08/02 03:58:02;;;;;;;14.30;8.40;;;;;;;;;;10293867;28;20026;-71
2023/08/02 04:03:03;;;;;;;11.07;8.23;;;;;;;;;;10265464;28;20019;-71
2023/08/02 04:08:03;;;;;;;14.45;9.30;;;;;;;;;;10276777;28;20026;-71
2023/08/02 04:13:04;;;;;;;10.93;8.20;;;;;;;;;;10292753;28;20079;-71
2023/08/02 04:18:04;;;;;;;12.43;8.43;;;;;;;;;;10282107;28;20328;-72
2023/08/02 04:23:04;;;;;;;13.07;8.38;;;;;;;;;;10290791;28;20031;-71
2023/08/02 04:28:05;;;;;;;10.00;8.68;;;;;;;;;;10295346;28;20228;-70
2023/08/02 04:33:06;;;;;;;11.05;8.45;;;;;;;;;;10285509;28;20019;-71
2023/08/02 04:38:06;;;;;;;15.77;8.43;;;;;;;;;;10289616;28;20025;-71
2023/08/02 04:43:06;;;;;;;12.13;8.73;;;;;;;;;;10282802;28;20030;-71
2023/08/02 04:48:06;;;;;;;14.23;8.65;;;;;;;;;;10278561;28;20018;-71
2023/08/02 04:53:07;;;;;;;11.55;8.10;;;;;;;;;;10246913;28;20261;-72
2023/08/02 04:58:07;;;;;;;13.98;8.88;;;;;;;;;;10273217;28;20026;-74
2023/08/02 05:03:07;;;;;;;16.40;8.38;;;;;;;;;;10265926;28;20031;-74
2023/08/02 05:08:07;;;;;;;13.05;8.80;;;;;;;;;;10271922;28;20069;-69
2023/08/02 05:13:08;;;;;;;14.60;10.05;;;;;;;;;;10279117;28;20594;-70
2023/08/02 05:18:08;;;;;;;13.93;8.93;;;;;;;;;;10272921;28;20054;-69
2023/08/02 05:23:08;;;;;;;14.57;9.05;;;;;;;;;;10268737;28;20220;-68
2023/08/02 05:28:08;;;;;;;11.73;8.35;;;;;;;;;;10291212;28;20281;-69
2023/08/02 05:33:09;;;;;;;15.43;9.15;;;;;;;;;;10270644;28;20046;-69
2023/08/02 05:38:10;;;;;;;16.57;9.67;;;;;;;;;;10279801;28;20038;-68
2023/08/02 05:43:10;;;;;;;19.65;10.60;;;;;;;;;;10285410;28;20072;-69
2023/08/02 05:48:10;;;;;;;17.10;9.60;;;;;;;;;;10284023;28;20014;-69
2023/08/02 05:53:11;;;;;;;17.35;10.98;;;;;;;;;;10288216;28;20293;-68
2023/08/02 05:58:11;;;;;;;15.43;9.73;;;;;;;;;;10275538;28;20022;-70
2023/08/02 06:03:11;;;;;;;19.48;10.55;;;;;;;;;;10264116;28;20427;-68
2023/08/02 06:08:12;;;;;;;17.48;10.85;;;;;;;;;;10284517;28;20073;-68
2023/08/02 06:13:12;;;;;;;15.23;9.90;;;;;;;;;;10289919;28;20029;-70
2023/08/02 06:18:12;;;;;;;11.52;9.02;;;;;;;;;;10286069;28;20232;-67
2023/08/02 06:23:12;;;;;;;19.42;9.95;;;;;;;;;;10290331;28;20015;-68
2023/08/02 06:28:13;;;;;;;17.80;9.88;;;;;;;;;;10290455;28;20027;-68
2023/08/02 06:33:13;;;;;;;12.50;8.20;;;;;;;;;;10291116;28;20025;-69
2023/08/02 06:38:14;;;;;;;12.57;7.78;;;;;;;;;;10264484;28;20015;-69
2023/08/02 06:43:14;;;;;;;16.55;7.55;;;;;;;;;;10277058;28;20029;-69
2023/08/02 06:48:17;;;;;;;9.10;6.78;;;;;;;;;;10285764;28;20015;-69
2023/08/02 06:53:17;;;;;;;8.30;6.75;;;;;;;;;;10284374;28;20181;-68
2023/08/02 06:58:18;;;;;;;10.10;6.93;;;;;;;;;;10277583;28;20015;-68
2023/08/02 07:03:21;;;;;;;12.80;6.65;;;;;;;;;;10291606;28;20266;-68
2023/08/02 07:08:22;;;;;;;7.43;6.57;;;;;;;;;;10282758;28;20346;-68
2023/08/02 07:13:22;;;;;;;10.65;6.18;;;;;;;;;;10278785;28;20244;-69
2023/08/02 07:18:22;;;;;;;8.95;6.20;;;;;;;;;;10289279;28;20043;-69
2023/08/02 07:23:22;;;;;;;10.03;6.33;;;;;;;;;;10294026;28;20027;-69
2023/08/02 07:28:23;;;;;;;15.23;6.45;;;;;;;;;;10292558;28;20226;-68
2023/08/02 07:33:23;;;;;;;8.80;5.67;;;;;;;;;;10294960;28;20218;-68
2023/08/02 07:38:23;;;;;;;7.00;5.13;;;;;;;;;;10297824;28;20854;-69
2023/08/02 07:43:24;;;;;;;13.55;6.07;;;;;;;;;;10266973;28;20027;-68
2023/08/02 07:48:24;;;;;;;9.43;4.93;;;;;;;;;;10289944;28;20197;-68
2023/08/02 07:53:24;;;;;;;16.05;5.90;;;;;;;;;;10290268;28;20324;-68
2023/08/02 07:58:25;;;;;;;10.02;5.75;;;;;;;;;;10293493;28;20339;-69
2023/08/02 08:03:25;;;;;;;9.88;5.38;;;;;;;;;;10292952;28;20382;-68
2023/08/02 08:08:25;;;;;;;14.23;4.80;;;;;;;;;;10285730;28;20019;-68
2023/08/02 08:13:26;;;;;;;6.68;4.32;;;;;;;;;;10292257;28;20291;-69
2023/08/02 08:18:26;;;;;;;6.97;4.70;;;;;;;;;;10282629;28;20086;-68
2023/08/02 08:23:27;;;;;;;8.77;4.43;;;;;;;;;;10291603;28;20094;-68
2023/08/02 08:28:28;;;;;;;7.97;4.40;;;;;;;;;;10286366;28;20021;-68
2023/08/02 08:33:29;;;;;;;8.98;3.67;;;;;;;;;;10287749;28;20213;-69
2023/08/02 08:38:30;;;;;;;9.68;3.63;;;;;;;;;;10293339;28;20103;-68
2023/08/02 08:43:32;;;;;;;4.53;2.67;;;;;;;;;;10271332;28;20221;-69
2023/08/02 08:48:33;;;;;;;5.35;3.47;;;;;;;;;;10293881;28;20323;-67
2023/08/02 08:53:34;;;;;;;5.25;3.58;;;;;;;;;;10288720;28;20133;-67
2023/08/02 08:58:35;;;;;;;8.93;3.67;;;;;;;;;;10281373;28;20022;-69
2023/08/02 09:03:36;;;;;;;6.03;3.38;;;;;;;;;;10278007;28;20372;-68
2023/08/02 09:08:42;;;;;;;4.95;3.83;;;;;;;;;;10280557;28;20038;-68
2023/08/02 09:13:42;;;;;;;5.40;3.35;;;;;;;;;;10286490;28;20018;-68
2023/08/02 09:18:46;;;;;;;4.83;3.77;;;;;;;;;;10286554;28;20047;-69
2023/08/02 09:23:47;;;;;;;5.07;3.47;;;;;;;;;;10284740;28;20030;-68
2023/08/02 09:29:01;;;;;;;7.50;4.10;;;;;;;;;;10288878;28;20347;-68
2023/08/02 09:34:02;;;;;;;6.60;3.35;;;;;;;;;;10281537;28;20030;-68
2023/08/02 09:39:15;;;;;;;6.10;3.35;;;;;;;;;;10278350;28;20384;-68
2023/08/02 09:44:20;;;;;;;6.30;2.83;;;;;;;;;;10278517;28;20023;-68
2023/08/02 09:49:21;;;;;;;3.63;2.15;;;;;;;;;;10291794;28;20030;-68
2023/08/02 09:54:21;;;;;;;5.93;2.17;;;;;;;;;;10291545;28;20026;-68
2023/08/02 09:59:22;;;;;;;3.65;2.72;;;;;;;;;;10282898;28;20225;-68
2023/08/02 10:04:24;;;;;;;5.70;3.40;;;;;;;;;;10285576;28;20061;-68
2023/08/02 10:09:30;;;;;;;7.15;3.80;;;;;;;;;;10282291;28;20324;-68
2023/08/02 10:14:31;;;;;;;4.47;2.92;;;;;;;;;;10279533;28;20039;-68
2023/08/02 10:19:33;;;;;;;9.40;3.40;;;;;;;;;;10276391;28;20333;-68
2023/08/02 10:24:33;;;;;;;4.97;3.28;;;;;;;;;;10286078;28;20349;-69
2023/08/02 10:29:34;;;;;;;6.28;3.05;;;;;;;;;;10285795;28;20050;-69
2023/08/02 10:34:34;;;;;;;7.80;2.65;;;;;;;;;;10290349;28;20355;-68
2023/08/02 10:39:47;;;;;;;6.85;2.88;;;;;;;;;;10283144;28;20082;-68
2023/08/02 10:44:56;;;;;;;4.10;2.30;;;;;;;;;;10279724;28;20018;-68
2023/08/02 10:49:57;;;;;;;4.30;2.10;;;;;;;;;;10283131;28;20034;-68
2023/08/02 10:55:16;;;;;;;2.95;2.42;;;;;;;;;;10297368;28;20372;-69
2023/08/02 11:00:23;;;;;;;7.45;2.13;;;;;;;;;;10296842;28;20019;-68
2023/08/02 11:05:37;;;;;;;8.18;2.28;;;;;;;;;;10290326;28;20030;-69
2023/08/02 11:10:46;;;;;;;7.20;2.10;;;;;;;;;;10287462;28;20026;-68
2023/08/02 11:15:47;;;;;;;7.07;2.20;;;;;;;;;;10292435;28;20019;-68
2023/08/02 11:20:47;;;;;;;3.25;2.90;;;;;;;;;;10292315;28;20058;-68
2023/08/02 11:25:47;;;;;;;5.13;2.90;;;;;;;;;;10293181;28;20345;-67
2023/08/02 11:30:51;;;;;;;4.15;3.05;;;;;;;;;;10297173;28;20046;-69
2023/08/02 11:35:52;;;;;;;5.53;3.30;;;;;;;;;;10292576;28;20335;-68
2023/08/02 11:40:52;;;;;;;6.65;3.38;;;;;;;;;;10298825;28;20027;-68
2023/08/02 11:45:53;;;;;;;6.95;3.40;;;;;;;;;;10281187;28;20231;-69
2023/08/02 11:50:54;;;;;;;3.65;3.20;;;;;;;;;;10281232;28;20297;-69
2023/08/02 11:55:54;;;;;;;10.75;3.45;;;;;;;;;;10298133;28;20019;-68
2023/08/02 12:00:54;;;;;;;6.25;4.20;;;;;;;;;;10298167;28;20027;-68
2023/08/02 12:05:58;;;;;;;6.85;3.78;;;;;;;;;;10281280;28;20224;-69
2023/08/02 12:10:58;;;;;;;9.25;4.45;;;;;;;;;;10298508;28;20023;-68
2023/08/02 12:15:59;;;;;;;2.97;2.67;;;;;;;;;;10297956;28;20023;-67
2023/08/02 12:21:14;;;;;;;3.75;3.20;;;;;;;;;;10290421;28;20043;-69
2023/08/02 12:26:46;;;;;;;3.38;3.08;;;;;;;;;;10298527;28;20018;-69
2023/08/02 12:31:48;;;;;;;6.50;3.47;;;;;;;;;;10254209;28;20229;-69
2023/08/02 12:36:49;;;;;;;9.65;2.95;;;;;;;;;;10297106;28;20022;-69
2023/08/02 12:41:49;;;;;;;4.65;3.25;;;;;;;;;;10303338;28;20034;-69
2023/08/02 12:46:49;;;;;;;3.73;3.37;;;;;;;;;;10296820;28;20054;-68
2023/08/02 12:51:50;;;;;;;4.97;3.33;;;;;;;;;;10296874;28;20278;-68
2023/08/02 12:56:50;;;;;;;4.10;3.30;;;;;;;;;;10297034;28;20091;-69
2023/08/02 13:01:51;;;;;;;6.80;3.65;;;;;;;;;;10296062;28;20066;-69
2023/08/02 13:06:51;;;;;;;6.57;3.40;;;;;;;;;;10294092;28;20459;-68
2023/08/02 13:11:52;;;;;;;6.00;3.45;;;;;;;;;;10287818;28;20052;-68
2023/08/02 13:16:52;;;;;;;8.57;3.17;;;;;;;;;;10280226;28;20062;-69
2023/08/02 13:21:52;;;;;;;4.13;3.58;;;;;;;;;;10287637;28;20049;-69
2023/08/02 13:26:53;;;;;;;5.90;3.17;;;;;;;;;;10293238;28;20066;-68
2023/08/02 13:31:53;;;;;;;4.20;3.28;;;;;;;;;;10284994;28;20023;-68
2023/08/02 13:36:53;;;;;;;5.97;4.00;;;;;;;;;;10286210;28;20029;-69
2023/08/02 13:41:54;;;;;;;6.15;3.50;;;;;;;;;;10281895;28;20027;-69
2023/08/02 13:46:54;;;;;;;6.13;3.50;;;;;;;;;;10286767;28;20034;-68
2023/08/02 13:51:54;;;;;;;4.97;3.60;;;;;;;;;;10284413;28;20078;-68
2023/08/02 13:56:55;;;;;;;6.95;4.35;;;;;;;;;;10291563;28;20062;-68
2023/08/02 14:01:56;;;;;;;7.63;3.30;;;;;;;;;;10285998;28;20023;-69
2023/08/02 14:06:56;;;;;;;6.03;3.75;;;;;;;;;;10285601;28;20125;-68
2023/08/02 14:11:56;;;;;;;6.60;4.00;;;;;;;;;;10292312;28;20029;-68
2023/08/02 14:16:57;;;;;;;7.18;3.53;;;;;;;;;;10287074;28;20035;-68
2023/08/02 14:21:57;;;;;;;8.77;3.87;;;;;;;;;;10291310;28;20216;-69
2023/08/02 14:26:57;;;;;;;9.48;4.30;;;;;;;;;;10293283;28;20262;-68
2023/08/02 14:31:57;;;;;;;6.75;3.28;;;;;;;;;;10289661;28;20022;-69
2023/08/02 14:36:58;;;;;;;4.82;3.30;;;;;;;;;;10283916;28;20344;-68
2023/08/02 14:41:58;;;;;;;8.77;3.70;;;;;;;;;;10277723;28;20429;-68
2023/08/02 14:46:58;;;;;;;10.15;3.83;;;;;;;;;;10260899;28;20235;-68
2023/08/02 14:51:59;;;;;;;4.53;3.67;;;;;;;;;;10282906;28;20029;-69
2023/08/02 14:56:59;;;;;;;6.57;3.77;;;;;;;;;;10281135;28;20200;-69
2023/08/02 15:01:59;;;;;;;6.68;3.40;;;;;;;;;;10281980;28;20044;-68
2023/08/02 15:06:59;;;;;;;8.38;3.28;;;;;;;;;;10289920;28;20015;-68
2023/08/02 15:12:00;;;;;;;11.93;4.70;;;;;;;;;;10286957;28;20034;-69
2023/08/02 15:17:00;;;;;;;9.18;3.72;;;;;;;;;;10270656;28;20127;-68
2023/08/02 15:22:00;;;;;;;4.47;3.30;;;;;;;;;;10286338;28;20034;-68
2023/08/02 15:27:00;;;;;;;4.18;3.13;;;;;;;;;;10289575;28;20086;-69
2023/08/02 15:32:01;;;;;;;7.13;3.80;;;;;;;;;;10289874;28;20031;-68
2023/08/02 15:37:01;;;;;;;4.90;3.00;;;;;;;;;;10286323;28;20340;-68
2023/08/02 15:42:02;;;;;;;8.88;3.97;;;;;;;;;;10288146;28;20176;-68
2023/08/02 15:47:02;;;;;;;4.88;3.42;;;;;;;;;;10294537;28;20011;-68
2023/08/02 15:52:02;;;;;;;5.83;3.80;;;;;;;;;;10280385;28;20018;-68
2023/08/02 15:57:03;;;;;;;5.07;3.80;;;;;;;;;;10297033;28;20089;-68
2023/08/02 16:02:04;;;;;;;13.88;5.13;;;;;;;;;;10296504;28;20247;-69
2023/08/02 16:07:04;;;;;;;6.60;5.20;;;;;;;;;;10295005;28;20074;-68
2023/08/02 16:12:04;;;;;;;7.13;4.40;;;;;;;;;;10296836;28;20269;-69
2023/08/02 16:17:05;;;;;;;9.10;4.40;;;;;;;;;;10286558;28;20295;-68
2023/08/02 16:22:05;;;;;;;5.67;4.47;;;;;;;;;;10288279;28;20023;-67
2023/08/02 16:27:05;;;;;;;10.00;5.20;;;;;;;;;;10293803;28;20086;-68
2023/08/02 16:32:06;;;;;;;7.90;4.47;;;;;;;;;;10288245;28;20063;-68
2023/08/02 16:37:06;;;;;;;10.10;5.03;;;;;;;;;;10288470;28;20348;-69
2023/08/02 16:42:07;;;;;;;17.90;5.15;;;;;;;;;;10288703;28;20061;-68
2023/08/02 16:47:07;;;;;;;8.13;4.53;;;;;;;;;;10287631;28;20011;-68
2023/08/02 16:52:07;;;;;;;8.82;4.78;;;;;;;;;;10296216;28;20022;-68
2023/08/02 16:57:07;;;;;;;8.95;5.72;;;;;;;;;;10284479;28;20089;-69
2023/08/02 17:02:08;;;;;;;8.75;5.28;;;;;;;;;;10292666;28;20259;-68
2023/08/02 17:07:08;;;;;;;7.10;4.97;;;;;;;;;;10292670;28;20022;-69
2023/08/02 17:12:09;;;;;;;8.25;5.35;;;;;;;;;;10287405;28;20213;-68
2023/08/02 17:17:09;;;;;;;8.20;5.10;;;;;;;;;;10282467;28;20038;-69
2023/08/02 17:22:09;;;;;;;5.72;4.63;;;;;;;;;;10282352;28;20304;-69
2023/08/02 17:27:10;;;;;;;9.80;5.07;;;;;;;;;;10279560;28;20033;-68
2023/08/02 17:32:10;;;;;;;8.95;5.30;;;;;;;;;;10272121;28;20244;-71
2023/08/02 17:37:10;;;;;;;7.60;4.83;;;;;;;;;;10266905;28;20023;-70
2023/08/02 17:42:10;;;;;;;10.48;5.95;;;;;;;;;;10284518;28;20101;-72
2023/08/02 17:47:11;;;;;;;6.95;5.00;;;;;;;;;;10278948;28;20022;-70
2023/08/02 17:52:11;;;;;;;10.63;5.40;;;;;;;;;;10280670;28;20026;-68
2023/08/02 17:57:11;;;;;;;10.32;5.70;;;;;;;;;;10275408;28;20056;-68
2023/08/02 18:02:12;;;;;;;9.40;5.50;;;;;;;;;;10284813;28;20022;-68
2023/08/02 18:07:12;;;;;;;6.35;5.25;;;;;;;;;;10273885;28;20030;-68
2023/08/02 18:12:12;;;;;;;8.45;5.53;;;;;;;;;;10277957;28;20250;-68
2023/08/02 18:17:13;;;;;;;8.90;5.97;;;;;;;;;;10270010;28;20408;-68
2023/08/02 18:22:13;;;;;;;8.43;5.40;;;;;;;;;;10279814;28;20030;-68
2023/08/02 18:27:14;;;;;;;7.25;5.60;;;;;;;;;;10272829;28;20058;-68
2023/08/02 18:32:15;;;;;;;9.98;5.75;;;;;;;;;;10271502;28;20356;-68
2023/08/02 18:37:15;;;;;;;8.17;5.57;;;;;;;;;;10275040;28;20376;-68
2023/08/02 18:42:15;;;;;;;6.75;4.68;;;;;;;;;;10278275;28;20018;-68
2023/08/02 18:47:15;;;;;;;7.90;5.78;;;;;;;;;;10270588;28;20023;-68
2023/08/02 18:52:16;;;;;;;8.05;5.53;;;;;;;;;;10277581;28;20069;-68
2023/08/02 18:57:16;;;;;;;8.38;5.72;;;;;;;;;;10275063;28;20309;-68
2023/08/02 19:02:16;;;;;;;9.18;5.10;;;;;;;;;;10280803;28;20018;-67
2023/08/02 19:07:16;;;;;;;7.82;5.65;;;;;;;;;;10280424;28;20223;-68
2023/08/02 19:12:19;;;;;;;9.95;5.80;;;;;;;;;;10296379;28;20283;-69
2023/08/02 19:17:20;;;;;;;9.30;6.28;;;;;;;;;;10287581;28;20054;-68
2023/08/02 19:22:21;;;;;;;8.20;5.93;;;;;;;;;;10273796;28;20287;-68
2023/08/02 19:27:22;;;;;;;9.70;6.57;;;;;;;;;;10284096;28;20034;-68
2023/08/02 19:32:23;;;;;;;10.10;6.57;;;;;;;;;;10288025;28;20015;-68
2023/08/02 19:37:26;;;;;;;9.88;6.43;;;;;;;;;;10288745;28;20027;-68
2023/08/02 19:42:27;;;;;;;12.27;6.43;;;;;;;;;;10287864;28;20293;-69
2023/08/02 19:47:28;;;;;;;8.55;6.47;;;;;;;;;;10281868;28;20237;-68
2023/08/02 19:52:29;;;;;;;13.13;7.75;;;;;;;;;;10288123;28;20022;-69
2023/08/02 19:57:39;;;;;;;10.73;6.55;;;;;;;;;;10273163;28;20093;-69
2023/08/02 20:02:41;;;;;;;8.52;6.38;;;;;;;;;;10289982;28;20026;-69
2023/08/02 20:07:41;;;;;;;10.93;6.28;;;;;;;;;;10286941;28;20027;-69
2023/08/02 20:12:42;;;;;;;7.88;5.65;;;;;;;;;;10289012;28;20026;-68
2023/08/02 20:17:42;;;;;;;10.48;5.95;;;;;;;;;;10264814;28;20248;-68
2023/08/02 20:22:43;;;;;;;10.38;6.25;;;;;;;;;;10278852;28;20054;-69
2023/08/02 20:27:44;;;;;;;7.65;6.22;;;;;;;;;;10261397;28;20316;-69
2023/08/02 20:32:49;;;;;;;8.93;6.80;;;;;;;;;;10281157;28;20026;-69
2023/08/02 20:37:49;;;;;;;7.80;6.00;;;;;;;;;;10288106;28;20371;-69
2023/08/02 20:42:50;;;;;;;11.77;6.13;;;;;;;;;;10288210;28;20102;-70
2023/08/02 20:47:51;;;;;;;8.40;6.27;;;;;;;;;;10284926;28;20024;-68
2023/08/02 20:52:52;;;;;;;9.38;6.60;;;;;;;;;;10269603;28;20023;-67
2023/08/02 20:57:52;;;;;;;10.63;6.22;;;;;;;;;;10273263;28;20236;-66
2023/08/02 21:02:52;;;;;;;8.88;6.20;;;;;;;;;;10274195;28;20038;-67
2023/08/02 21:07:53;;;;;;;9.70;6.22;;;;;;;;;;10272437;28;20293;-68
2023/08/02 21:12:53;;;;;;;13.50;5.80;;;;;;;;;;10281649;28;20031;-67
2023/08/02 21:17:53;;;;;;;8.40;5.90;;;;;;;;;;10271168;28;20031;-68
2023/08/02 21:22:54;;;;;;;11.70;6.83;;;;;;;;;;10275834;28;20034;-68
2023/08/02 21:27:54;;;;;;;11.95;6.68;;;;;;;;;;10279864;28;20325;-67
2023/08/02 21:32:54;;;;;;;8.23;6.13;;;;;;;;;;10268773;28;20031;-67
2023/08/02 21:37:55;;;;;;;8.73;5.95;;;;;;;;;;10284887;28;20023;-66
2023/08/02 21:42:55;;;;;;;9.82;6.65;;;;;;;;;;10273346;28;20113;-67
2023/08/02 21:47:56;;;;;;;9.50;6.32;;;;;;;;;;10252147;28;20464;-68
2023/08/02 21:52:56;;;;;;;8.02;6.50;;;;;;;;;;10252494;28;20027;-68
2023/08/02 21:57:59;;;;;;;9.80;6.83;;;;;;;;;;10263893;28;20023;-68
2023/08/02 22:02:59;;;;;;;9.98;6.70;;;;;;;;;;10245585;28;20249;-68
2023/08/02 22:08:01;;;;;;;10.90;6.32;;;;;;;;;;10263750;28;20098;-66
2023/08/02 22:13:03;;;;;;;14.13;6.32;;;;;;;;;;10257834;28;20031;-75
2023/08/02 22:18:04;;;;;;;6.57;5.68;;;;;;;;;;10250293;28;20224;-70
2023/08/02 22:23:04;;;;;;;9.18;5.63;;;;;;;;;;10280387;28;20102;-76
2023/08/02 22:28:04;;;;;;;19.33;6.10;;;;;;;;;;10278277;28;20347;-69
2023/08/02 22:33:05;;;;;;;12.90;6.30;;;;;;;;;;10277439;28;20027;-73
2023/08/02 22:38:06;;;;;;;9.10;6.17;;;;;;;;;;10263650;28;20081;-73
2023/08/02 22:43:07;;;;;;;7.72;6.68;;;;;;;;;;10274919;28;20193;-71
2023/08/02 22:48:07;;;;;;;10.53;5.80;;;;;;;;;;10270938;28;20312;-70
2023/08/02 22:53:07;;;;;;;9.10;6.33;;;;;;;;;;10273668;28;20113;-73
2023/08/02 22:58:08;;;;;;;9.30;6.13;;;;;;;;;;10280030;28;20182;-73
2023/08/02 23:03:26;;;;;;;8.75;5.82;;;;;;;;;;10267404;28;20305;-67
2023/08/02 23:08:31;;;;;;;10.10;6.45;;;;;;;;;;10283780;28;20225;-66
2023/08/02 23:13:32;;;;;;;12.55;6.53;;;;;;;;;;10287179;28;20035;-66
2023/08/02 23:18:32;;;;;;;12.18;6.03;;;;;;;;;;10267773;28;20158;-66
2023/08/02 23:23:32;;;;;;;9.07;6.53;;;;;;;;;;10280031;28;20113;-67
2023/08/02 23:28:33;;;;;;;8.27;6.87;;;;;;;;;;10274662;28;20338;-66
2023/08/02 23:33:33;;;;;;;9.57;6.67;;;;;;;;;;10276268;28;20019;-66
2023/08/02 23:38:33;;;;;;;10.10;6.10;;;;;;;;;;10281469;28;20042;-66
2023/08/02 23:43:33;;;;;;;10.50;6.80;;;;;;;;;;10271753;28;20317;-66
2023/08/02 23:48:34;;;;;;;11.15;6.90;;;;;;;;;;10280315;28;20015;-66
2023/08/02 23:53:34;;;;;;;8.10;6.68;;;;;;;;;;10287252;28;20036;-66
2023/08/02 23:58:34;;;;;;;9.32;6.43;;;;;;;;;;10278665;28;20217;-67
